Time;durP1;ratioP1;P1;durP2;ratioP2;P2;SDS_P1;SDS_P2;PMS_P1;PMS_P2;Temp;Humidity;BMP_temperature;BMP_pressure;BME280_temperature;BME280_humidity;BME280_pressure;Samples;Min_cycle;Max_cycle;Signal;HPM_P1;HPM_P2
2024/04/26 00:01:31;;;;;;;9.73;4.17;;;7.70;1.00;;;;;;5397932;26;20616;-74
2024/04/26 00:04:01;;;;;;;9.93;3.73;;;7.60;1.00;;;;;;5397434;26;20925;-73
2024/04/26 00:06:29;;;;;;;8.67;3.63;;;7.60;1.00;;;;;;5397649;26;20841;-74
2024/04/26 00:08:58;;;;;;;10.03;4.27;;;7.60;1.00;;;;;;5383949;26;20517;-73
2024/04/26 00:11:27;;;;;;;8.33;3.40;;;7.60;1.00;;;;;;5403711;26;20480;-73
2024/04/26 00:13:55;;;;;;;8.00;3.93;;;7.60;1.00;;;;;;5373681;26;20454;-74
2024/04/26 00:16:24;;;;;;;8.00;3.60;;;7.60;1.00;;;;;;5396242;26;20482;-73
2024/04/26 00:18:55;;;;;;;7.70;3.47;;;7.60;1.00;;;;;;5397714;26;20852;-74
2024/04/26 00:21:23;;;;;;;8.63;3.50;;;7.60;1.00;;;;;;5384260;26;20462;-74
2024/04/26 00:23:52;;;;;;;7.73;3.27;;;7.50;1.00;;;;;;5396610;26;20567;-74
2024/04/26 00:26:21;;;;;;;6.00;3.20;;;7.50;1.00;;;;;;5377592;26;20527;-74
2024/04/26 00:28:49;;;;;;;6.90;3.70;;;7.50;1.00;;;;;;5349939;26;20591;-74
2024/04/26 00:31:21;;;;;;;7.10;3.20;;;7.40;1.00;;;;;;5391311;26;20468;-74
2024/04/26 00:33:49;;;;;;;8.20;3.90;;;7.30;1.00;;;;;;5392040;26;20458;-73
2024/04/26 00:36:20;;;;;;;15.07;4.60;;;7.30;1.00;;;;;;5382517;26;20576;-73
2024/04/26 00:38:49;;;;;;;8.90;4.90;;;7.20;1.00;;;;;;5384223;26;21124;-73
2024/04/26 00:41:17;;;;;;;7.50;4.17;;;7.20;1.00;;;;;;5391289;26;21141;-73
2024/04/26 00:43:57;;;;;;;8.33;4.17;;;7.20;1.00;;;;;;5386815;26;20559;-73
2024/04/26 00:46:26;;;;;;;5.83;3.50;;;7.10;1.00;;;;;;5377551;26;20469;-73
2024/04/26 00:48:55;;;;;;;8.27;4.20;;;7.00;1.00;;;;;;5359333;26;20471;-73
2024/04/26 00:51:26;;;;;;;8.90;4.10;;;7.00;1.00;;;;;;5390292;26;20506;-73
2024/04/26 00:53:55;;;;;;;8.70;4.27;;;6.90;1.00;;;;;;5390676;26;20587;-73
2024/04/26 00:56:24;;;;;;;7.80;5.07;;;6.80;1.00;;;;;;5396883;26;20478;-73
2024/04/26 00:58:53;;;;;;;7.47;5.57;;;6.80;1.00;;;;;;5383096;26;20576;-72
2024/04/26 01:01:22;;;;;;;14.73;7.20;;;6.70;1.00;;;;;;5383018;26;21138;-73
2024/04/26 01:03:51;;;;;;;8.10;7.30;;;6.70;1.00;;;;;;5396908;26;20461;-73
2024/04/26 01:06:19;;;;;;;15.30;7.80;;;6.70;1.00;;;;;;5382665;26;20469;-73
2024/04/26 01:08:50;;;;;;;7.60;6.80;;;6.60;1.00;;;;;;5384056;26;20574;-73
2024/04/26 01:11:19;;;;;;;6.97;5.50;;;6.60;1.00;;;;;;5368173;26;20517;-73
2024/04/26 01:13:48;;;;;;;11.40;5.43;;;6.60;1.00;;;;;;5394892;26;20497;-73
2024/04/26 01:16:16;;;;;;;13.03;5.63;;;6.60;1.00;;;;;;5388388;26;20476;-73
2024/04/26 01:18:45;;;;;;;8.03;4.20;;;6.70;1.00;;;;;;5390368;26;20863;-73
2024/04/26 01:21:14;;;;;;;6.93;4.47;;;6.70;1.00;;;;;;5382286;26;20517;-73
2024/04/26 01:23:42;;;;;;;8.53;4.97;;;6.70;1.00;;;;;;5393320;26;20567;-73
2024/04/26 01:26:13;;;;;;;7.07;4.10;;;6.70;1.00;;;;;;5398518;26;20465;-73
2024/04/26 01:28:42;;;;;;;6.80;4.77;;;6.70;1.00;;;;;;5396505;26;20458;-73
2024/04/26 01:31:10;;;;;;;10.00;5.20;;;6.70;1.00;;;;;;5396492;26;20480;-73
2024/04/26 01:33:39;;;;;;;12.33;4.93;;;6.80;1.00;;;;;;5381363;26;20522;-73
2024/04/26 01:36:08;;;;;;;7.83;4.10;;;6.80;1.00;;;;;;5385033;26;20577;-73
2024/04/26 01:38:36;;;;;;;26.03;5.03;;;6.80;1.00;;;;;;5402494;26;20471;-72
2024/04/26 01:41:05;;;;;;;10.23;4.27;;;6.80;1.00;;;;;;5399758;26;21109;-73
2024/04/26 01:43:36;;;;;;;7.30;4.20;;;6.80;1.00;;;;;;5381119;26;20465;-73
2024/04/26 01:46:05;;;;;;;12.83;4.60;;;6.80;1.00;;;;;;5379368;26;20514;-73
2024/04/26 01:48:33;;;;;;;11.43;4.63;;;6.80;1.00;;;;;;5356472;26;20462;-73
2024/04/26 01:51:02;;;;;;;13.40;4.40;;;6.80;1.00;;;;;;5396199;26;20474;-73
2024/04/26 01:53:30;;;;;;;8.47;4.53;;;6.80;1.00;;;;;;5390317;26;20528;-73
2024/04/26 01:55:59;;;;;;;8.20;4.33;;;6.80;1.00;;;;;;5400345;26;21100;-73
2024/04/26 01:58:24;;;;;;;8.47;4.10;;;6.90;1.00;;;;;;5369037;26;20554;-73
2024/04/26 02:00:55;;;;;;;8.23;3.80;;;7.00;1.00;;;;;;5381824;26;20508;-73
2024/04/26 02:03:21;;;;;;;7.40;3.90;;;7.00;1.00;;;;;;5375534;26;20241;-72
2024/04/26 02:05:50;;;;;;;9.03;4.63;;;7.00;1.00;;;;;;5359859;26;20524;-72
2024/04/26 02:08:16;;;;;;;10.47;4.20;;;7.00;1.00;;;;;;5395240;26;20243;-73
2024/04/26 02:10:44;;;;;;;7.23;4.00;;;7.00;1.00;;;;;;5393608;26;20577;-73
2024/04/26 02:13:10;;;;;;;8.07;4.30;;;6.90;1.00;;;;;;5382633;26;20239;-73
2024/04/26 02:15:38;;;;;;;13.37;4.90;;;6.90;1.00;;;;;;5380958;26;20458;-73
2024/04/26 02:18:07;;;;;;;8.30;4.13;;;6.90;1.00;;;;;;5381348;26;20286;-73
2024/04/26 02:20:35;;;;;;;11.17;4.20;;;6.90;1.00;;;;;;5385672;26;20511;-73
2024/04/26 02:23:04;;;;;;;10.03;4.83;;;6.90;1.00;;;;;;5389359;26;21010;-73
2024/04/26 02:25:33;;;;;;;13.20;4.73;;;7.00;1.00;;;;;;5346486;26;20492;-73
2024/04/26 02:28:01;;;;;;;13.47;5.50;;;7.00;1.00;;;;;;5363768;26;20517;-73
2024/04/26 02:30:29;;;;;;;7.67;4.47;;;7.00;1.00;;;;;;5402157;26;20575;-73
2024/04/26 02:33:00;;;;;;;14.20;5.03;;;7.10;1.00;;;;;;5400283;26;20930;-73
2024/04/26 02:35:31;;;;;;;11.97;4.87;;;7.20;1.00;;;;;;5389251;26;20829;-73
2024/04/26 02:37:59;;;;;;;12.43;4.40;;;7.20;1.00;;;;;;5372674;26;20589;-73
2024/04/26 02:40:25;;;;;;;8.53;4.03;;;7.30;1.00;;;;;;5371047;26;20467;-73
2024/04/26 02:42:53;;;;;;;9.60;4.60;;;7.30;1.00;;;;;;5360227;26;20537;-73
2024/04/26 02:45:22;;;;;;;13.37;4.30;;;7.40;1.00;;;;;;5374904;26;20528;-73
2024/04/26 02:47:50;;;;;;;7.80;4.20;;;7.40;1.00;;;;;;5387599;26;20590;-72
2024/04/26 02:50:19;;;;;;;11.10;4.30;;;7.50;1.00;;;;;;5380862;26;20567;-73
2024/04/26 02:52:50;;;;;;;14.80;4.37;;;7.50;1.00;;;;;;5382235;26;20482;-73
2024/04/26 02:55:19;;;;;;;9.53;4.30;;;7.60;1.00;;;;;;5351803;26;20581;-73
2024/04/26 02:57:47;;;;;;;11.30;4.00;;;7.60;1.00;;;;;;5393624;26;20457;-73
2024/04/26 03:00:16;;;;;;;9.53;4.60;;;7.60;1.00;;;;;;5396161;26;21088;-73
2024/04/26 03:02:45;;;;;;;13.83;3.87;;;7.60;1.00;;;;;;5383017;26;20741;-73
2024/04/26 03:05:13;;;;;;;13.43;4.37;;;7.70;1.00;;;;;;5389069;26;20521;-73
2024/04/26 03:07:41;;;;;;;13.23;4.53;;;7.70;1.00;;;;;;5383350;26;20476;-73
2024/04/26 03:10:13;;;;;;;8.03;4.77;;;7.60;1.00;;;;;;5397411;26;21027;-73
2024/04/26 03:12:41;;;;;;;7.00;3.70;;;7.60;1.00;;;;;;5383879;26;20590;-73
2024/04/26 03:15:10;;;;;;;14.80;4.07;;;7.60;1.00;;;;;;5363638;26;20462;-73
2024/04/26 03:17:41;;;;;;;11.30;4.37;;;7.60;1.00;;;;;;5393527;26;20477;-73
2024/04/26 03:20:10;;;;;;;10.30;5.00;;;7.60;1.00;;;;;;5379127;26;20592;-72
2024/04/26 03:22:38;;;;;;;10.37;5.13;;;7.60;1.00;;;;;;5394866;26;20478;-73
2024/04/26 03:25:09;;;;;;;15.93;4.73;;;7.50;1.00;;;;;;5394840;26;20458;-73
2024/04/26 03:27:40;;;;;;;12.83;5.50;;;7.50;1.00;;;;;;5384478;26;20529;-73
2024/04/26 03:30:09;;;;;;;8.90;4.93;;;7.50;1.00;;;;;;5381091;26;20522;-73
2024/04/26 03:32:37;;;;;;;10.30;6.10;;;7.40;1.00;;;;;;5389903;26;21028;-73
2024/04/26 03:35:06;;;;;;;8.90;5.77;;;7.40;1.00;;;;;;5380211;26;20507;-73
2024/04/26 03:37:35;;;;;;;9.53;5.07;;;7.30;1.00;;;;;;5379925;26;20506;-73
2024/04/26 03:40:03;;;;;;;7.90;4.90;;;7.30;1.00;;;;;;5394663;26;20465;-73
2024/04/26 03:42:32;;;;;;;12.47;5.50;;;7.30;1.00;;;;;;5388655;26;21136;-73
2024/04/26 03:45:03;;;;;;;16.03;5.93;;;7.30;1.00;;;;;;5384626;26;20462;-73
2024/04/26 03:47:31;;;;;;;9.10;5.63;;;7.30;1.00;;;;;;5385695;26;20463;-73
2024/04/26 03:50:00;;;;;;;10.63;4.87;;;7.30;1.00;;;;;;5361627;26;20474;-73
2024/04/26 03:52:28;;;;;;;11.43;5.37;;;7.30;1.00;;;;;;5377506;26;20478;-74
2024/04/26 03:54:57;;;;;;;7.67;5.10;;;7.30;1.00;;;;;;5394562;26;20918;-73
2024/04/26 03:57:26;;;;;;;9.10;5.67;;;7.30;1.00;;;;;;5379848;26;20477;-73
2024/04/26 03:59:54;;;;;;;15.13;5.43;;;7.20;1.00;;;;;;5394600;26;20511;-73
2024/04/26 04:02:25;;;;;;;11.17;6.17;;;7.20;1.00;;;;;;5393013;26;20470;-73
2024/04/26 04:04:54;;;;;;;14.40;8.90;;;7.20;1.00;;;;;;5394333;26;20593;-73
2024/04/26 04:07:22;;;;;;;11.70;6.30;;;7.10;1.00;;;;;;5380448;26;20573;-73
2024/04/26 04:09:50;;;;;;;10.50;5.80;;;7.20;1.00;;;;;;5380868;26;20481;-74
2024/04/26 04:12:19;;;;;;;13.63;6.70;;;7.20;1.00;;;;;;5370703;26;20469;-73
2024/04/26 04:14:47;;;;;;;16.13;7.37;;;7.10;1.00;;;;;;5373028;26;20883;-73
2024/04/26 04:17:16;;;;;;;18.83;6.90;;;7.10;1.00;;;;;;5374288;26;20468;-73
2024/04/26 04:19:47;;;;;;;12.20;6.90;;;7.10;1.00;;;;;;5383679;26;20480;-73
2024/04/26 04:22:16;;;;;;;17.20;7.60;;;7.00;1.00;;;;;;5365318;26;20474;-73
2024/04/26 04:24:44;;;;;;;13.30;8.10;;;7.00;1.00;;;;;;5382291;26;20493;-73
2024/04/26 04:27:13;;;;;;;12.17;7.87;;;7.00;1.00;;;;;;5392315;26;20468;-73
2024/04/26 04:29:41;;;;;;;15.43;7.17;;;7.00;1.00;;;;;;5393544;26;20461;-73
2024/04/26 04:32:10;;;;;;;12.20;7.30;;;7.00;1.00;;;;;;5396205;26;21021;-73
2024/04/26 04:34:38;;;;;;;12.67;7.83;;;7.10;1.00;;;;;;5395648;26;20473;-73
2024/04/26 04:37:10;;;;;;;11.83;7.20;;;7.20;1.00;;;;;;5398181;26;20890;-73
2024/04/26 04:39:40;;;;;;;14.57;6.83;;;7.30;1.00;;;;;;5383677;26;20462;-73
2024/04/26 04:42:09;;;;;;;9.77;5.87;;;7.30;1.00;;;;;;5401376;26;20584;-73
2024/04/26 04:44:38;;;;;;;16.97;6.87;;;7.40;1.00;;;;;;5404413;26;20586;-73
2024/04/26 04:47:06;;;;;;;14.80;9.00;;;7.40;1.00;;;;;;5389051;26;20469;-73
2024/04/26 04:49:35;;;;;;;12.97;7.37;;;7.40;1.00;;;;;;5403606;26;20967;-73
2024/04/26 04:52:03;;;;;;;14.53;6.60;;;7.50;1.00;;;;;;5400816;26;21022;-73
2024/04/26 04:54:35;;;;;;;8.20;4.90;;;7.60;1.00;;;;;;5396792;26;20572;-73
2024/04/26 04:57:03;;;;;;;14.17;7.27;;;7.70;1.00;;;;;;5384550;26;20516;-73
2024/04/26 04:59:32;;;;;;;18.87;6.00;;;7.80;1.00;;;;;;5379427;26;21018;-73
2024/04/26 05:02:00;;;;;;;18.80;5.67;;;7.90;1.00;;;;;;5381998;26;20471;-73
2024/04/26 05:04:29;;;;;;;13.43;6.73;;;8.00;1.00;;;;;;5388689;26;21013;-73
2024/04/26 05:06:57;;;;;;;14.73;6.20;;;8.00;1.00;;;;;;5391527;26;20590;-73
2024/04/26 05:09:26;;;;;;;23.37;7.83;;;8.00;1.00;;;;;;5389430;26;20479;-73
2024/04/26 05:11:57;;;;;;;13.20;5.83;;;8.10;1.00;;;;;;5392778;26;20461;-72
2024/04/26 05:14:26;;;;;;;13.00;5.30;;;8.10;1.00;;;;;;5397217;26;20518;-72
2024/04/26 05:16:54;;;;;;;18.83;5.27;;;8.10;1.00;;;;;;5396393;26;20580;-73
2024/04/26 05:19:23;;;;;;;10.87;4.47;;;8.10;1.00;;;;;;5381746;26;20466;-73
2024/04/26 05:21:51;;;;;;;17.83;5.03;;;8.20;1.00;;;;;;5396663;26;20470;-73
2024/04/26 05:24:20;;;;;;;10.00;5.90;;;8.20;1.00;;;;;;5367217;26;20556;-73
2024/04/26 05:26:51;;;;;;;17.77;4.50;;;8.20;1.00;;;;;;5397113;26;20518;-73
2024/04/26 05:29:23;;;;;;;17.00;5.53;;;8.30;1.00;;;;;;5402941;26;20504;-73
2024/04/26 05:31:51;;;;;;;19.83;6.10;;;8.30;1.00;;;;;;5403226;26;20588;-73
2024/04/26 05:34:20;;;;;;;14.63;6.67;;;8.40;1.00;;;;;;5381571;26;20481;-73
2024/04/26 05:36:48;;;;;;;17.97;7.10;;;8.50;1.00;;;;;;5396630;26;20530;-73
2024/04/26 05:39:17;;;;;;;12.23;6.30;;;8.60;1.00;;;;;;5396594;26;20470;-73
2024/04/26 05:41:46;;;;;;;12.80;5.93;;;8.70;1.00;;;;;;5384004;26;20512;-73
2024/04/26 05:44:14;;;;;;;12.00;5.77;;;8.80;1.00;;;;;;5388891;26;20604;-73
2024/04/26 05:46:45;;;;;;;11.40;5.80;;;8.90;1.00;;;;;;5372043;26;20586;-73
2024/04/26 05:49:15;;;;;;;13.60;6.00;;;9.10;1.00;;;;;;5386368;26;20466;-73
2024/04/26 05:51:43;;;;;;;19.10;6.00;;;9.20;1.00;;;;;;5402541;26;20456;-73
2024/04/26 05:54:12;;;;;;;16.07;5.70;;;9.30;1.00;;;;;;5368466;26;20943;-72
2024/04/26 05:56:40;;;;;;;11.70;4.77;;;9.40;1.00;;;;;;5396194;26;20854;-73
2024/04/26 05:59:09;;;;;;;12.63;6.20;;;9.40;1.00;;;;;;5381530;26;20467;-74
2024/04/26 06:01:37;;;;;;;16.93;5.13;;;9.30;1.00;;;;;;5392041;26;21149;-73
2024/04/26 06:04:10;;;;;;;10.90;4.80;;;9.30;1.00;;;;;;5369562;26;21064;-73
2024/04/26 06:06:41;;;;;;;7.10;4.33;;;9.30;1.00;;;;;;5381341;26;20840;-73
2024/04/26 06:09:09;;;;;;;9.53;5.30;;;9.20;1.00;;;;;;5399801;26;20465;-73
2024/04/26 06:11:38;;;;;;;13.27;5.70;;;9.20;1.00;;;;;;5401869;26;20596;-73
2024/04/26 06:14:06;;;;;;;13.60;4.70;;;9.20;1.00;;;;;;5386967;26;20511;-73
2024/04/26 06:16:35;;;;;;;9.87;5.47;;;9.20;1.00;;;;;;5367658;26;20510;-72
2024/04/26 06:19:03;;;;;;;9.70;4.27;;;9.20;1.00;;;;;;5345725;26;20463;-73
2024/04/26 06:21:38;;;;;;;11.60;5.53;;;9.20;1.00;;;;;;5377386;26;20483;-72
2024/04/26 06:24:07;;;;;;;12.93;5.10;;;9.10;1.00;;;;;;5371309;26;20469;-72
2024/04/26 06:26:37;;;;;;;11.20;4.30;;;9.20;1.00;;;;;;5366017;26;20479;-73
2024/04/26 06:29:06;;;;;;;7.70;4.33;;;9.30;1.00;;;;;;5388629;26;20468;-73
2024/04/26 06:31:35;;;;;;;14.27;4.73;;;9.40;1.00;;;;;;5379417;26;20456;-72
2024/04/26 06:34:03;;;;;;;7.93;3.87;;;9.50;1.00;;;;;;5398378;26;20461;-73
2024/04/26 06:36:34;;;;;;;11.50;4.10;;;9.60;1.00;;;;;;5394410;26;20481;-73
2024/04/26 06:39:02;;;;;;;9.97;4.27;;;9.70;1.00;;;;;;5396208;26;20993;-73
2024/04/26 06:41:31;;;;;;;13.57;4.93;;;9.80;1.00;;;;;;5378274;26;20482;-73
2024/04/26 06:43:59;;;;;;;13.03;5.00;;;10.00;1.00;;;;;;5378607;26;20483;-72
2024/04/26 06:46:28;;;;;;;8.90;4.33;;;10.00;1.00;;;;;;5376552;26;20476;-73
2024/04/26 06:48:56;;;;;;;11.03;4.00;;;10.30;1.00;;;;;;5401030;26;20472;-73
2024/04/26 06:51:25;;;;;;;7.93;4.43;;;10.10;1.00;;;;;;5395422;26;21028;-73
2024/04/26 06:53:56;;;;;;;18.47;4.80;;;10.20;1.00;;;;;;5394503;26;20468;-73
2024/04/26 06:56:24;;;;;;;12.43;4.77;;;10.30;1.00;;;;;;5381942;26;20518;-73
2024/04/26 06:58:53;;;;;;;9.23;5.30;;;10.50;1.00;;;;;;5395464;26;21000;-73
2024/04/26 07:01:21;;;;;;;9.70;4.17;;;10.70;1.00;;;;;;5361357;26;20460;-73
2024/04/26 07:03:50;;;;;;;10.83;4.53;;;10.80;1.00;;;;;;5368382;26;20471;-73
2024/04/26 07:06:18;;;;;;;10.00;5.05;;;10.80;1.00;;;;;;5381354;26;20376;-73
2024/04/26 07:08:46;;;;;;;9.20;4.40;;;10.90;1.00;;;;;;5387959;26;21032;-73
2024/04/26 07:11:18;;;;;;;12.43;5.03;;;11.00;1.00;;;;;;5366976;26;20459;-73
2024/04/26 07:13:47;;;;;;;8.83;4.97;;;11.40;1.00;;;;;;5385117;26;20469;-72
2024/04/26 07:16:15;;;;;;;8.27;4.43;;;11.60;1.00;;;;;;5386122;26;20472;-73
2024/04/26 07:18:43;;;;;;;10.53;4.53;;;11.90;1.00;;;;;;5401634;26;20856;-73
2024/04/26 07:21:12;;;;;;;8.73;4.47;;;11.90;1.00;;;;;;5386557;26;20473;-73
2024/04/26 07:23:40;;;;;;;12.80;4.83;;;12.10;1.00;;;;;;5400707;26;20473;-73
2024/04/26 07:26:09;;;;;;;9.20;4.60;;;12.20;1.00;;;;;;5353729;26;20897;-73
2024/04/26 07:28:40;;;;;;;11.30;5.20;;;12.30;1.00;;;;;;5390404;26;21057;-73
2024/04/26 07:31:08;;;;;;;9.30;3.90;;;12.50;1.00;;;;;;5371828;26;21053;-73
2024/04/26 07:33:37;;;;;;;8.63;3.90;;;12.50;1.00;;;;;;5390091;26;20461;-73
2024/04/26 07:36:05;;;;;;;17.13;5.20;;;12.40;1.00;;;;;;5396884;26;20457;-73
2024/04/26 07:38:34;;;;;;;10.20;3.83;;;12.60;1.00;;;;;;5400746;26;20468;-74
2024/04/26 07:41:03;;;;;;;9.10;4.37;;;12.80;1.00;;;;;;5386086;26;20589;-73
2024/04/26 07:43:31;;;;;;;14.93;4.60;;;12.60;1.00;;;;;;5367981;26;20471;-73
2024/04/26 07:46:02;;;;;;;14.33;5.53;;;12.80;1.00;;;;;;5388470;26;20465;-73
2024/04/26 07:48:31;;;;;;;10.43;4.53;;;13.00;1.00;;;;;;5376814;26;20583;-73
2024/04/26 07:50:59;;;;;;;9.63;4.17;;;13.10;1.00;;;;;;5371637;26;20454;-73
2024/04/26 07:53:27;;;;;;;12.93;4.63;;;13.00;1.00;;;;;;5400412;26;20453;-73
2024/04/26 07:55:56;;;;;;;13.23;5.80;;;13.10;1.00;;;;;;5371084;26;20577;-73
2024/04/26 07:58:25;;;;;;;10.77;4.73;;;13.50;1.00;;;;;;5400466;26;20460;-73
2024/04/26 08:00:54;;;;;;;10.93;5.43;;;13.60;1.00;;;;;;5400433;26;20461;-73
2024/04/26 08:03:22;;;;;;;10.20;5.20;;;13.60;1.00;;;;;;5372105;26;21074;-73
2024/04/26 08:05:52;;;;;;;11.73;5.37;;;13.50;1.00;;;;;;5387417;26;20470;-73
2024/04/26 08:08:20;;;;;;;11.77;5.90;;;13.20;1.00;;;;;;5388916;26;20472;-73
2024/04/26 08:10:48;;;;;;;15.93;5.53;;;12.90;1.00;;;;;;5376064;26;20825;-73
2024/04/26 08:13:17;;;;;;;13.07;5.93;;;12.90;1.00;;;;;;5391651;26;20468;-73
2024/04/26 08:15:48;;;;;;;11.80;5.13;;;13.30;1.00;;;;;;5359971;26;20564;-73
2024/04/26 08:18:16;;;;;;;9.17;5.17;;;13.40;1.00;;;;;;5383144;26;21079;-73
2024/04/26 08:20:47;;;;;;;11.33;5.60;;;13.40;1.00;;;;;;5385292;26;20574;-72
2024/04/26 08:23:16;;;;;;;11.63;5.97;;;13.30;1.00;;;;;;5391167;26;20516;-72
2024/04/26 08:25:45;;;;;;;12.53;7.20;;;13.30;1.00;;;;;;5359825;26;20474;-73
2024/04/26 08:28:14;;;;;;;13.00;5.80;;;13.50;1.00;;;;;;5387227;26;20466;-73
2024/04/26 08:30:44;;;;;;;10.30;5.60;;;13.20;1.00;;;;;;5403367;26;20513;-73
2024/04/26 08:33:13;;;;;;;12.27;5.40;;;13.20;1.00;;;;;;5369198;26;20502;-73
2024/04/26 08:35:42;;;;;;;15.57;6.53;;;13.20;1.00;;;;;;5386104;26;20913;-73
2024/04/26 08:38:13;;;;;;;14.53;6.03;;;13.10;1.00;;;;;;5384184;26;20469;-73
2024/04/26 08:40:42;;;;;;;10.00;5.37;;;13.00;1.00;;;;;;5392046;26;20529;-73
2024/04/26 08:43:11;;;;;;;10.93;6.07;;;12.70;1.00;;;;;;5396790;26;20461;-72
2024/04/26 08:45:41;;;;;;;12.23;6.50;;;12.40;1.00;;;;;;5397055;26;20962;-73
2024/04/26 08:48:11;;;;;;;15.70;6.67;;;12.50;1.00;;;;;;5382915;26;20463;-72
2024/04/26 08:50:40;;;;;;;12.77;5.57;;;12.50;1.00;;;;;;5393458;26;21062;-73
2024/04/26 08:53:12;;;;;;;10.97;5.47;;;12.70;1.00;;;;;;5373634;26;20571;-73
2024/04/26 08:55:41;;;;;;;13.50;6.23;;;12.60;1.00;;;;;;5391209;26;20470;-71
2024/04/26 08:58:15;;;;;;;14.85;6.38;;;12.40;1.00;;;;;;5380233;26;20461;-75
2024/04/26 09:00:44;;;;;;;9.60;5.80;;;12.50;1.00;;;;;;5357868;26;20559;-72
2024/04/26 09:03:13;;;;;;;10.93;6.23;;;12.50;1.00;;;;;;5386559;26;20568;-73
2024/04/26 09:05:43;;;;;;;11.70;5.60;;;12.40;1.00;;;;;;5371164;26;20524;-73
2024/04/26 09:08:14;;;;;;;10.17;6.40;;;12.40;1.00;;;;;;5396900;26;20526;-73
2024/04/26 09:10:43;;;;;;;22.80;6.53;;;12.30;1.00;;;;;;5384189;26;20466;-73
2024/04/26 09:13:15;;;;;;;10.67;5.33;;;12.20;1.00;;;;;;5412661;26;20968;-73
2024/04/26 09:15:44;;;;;;;12.50;6.67;;;12.10;1.00;;;;;;5381198;26;20809;-73
2024/04/26 09:18:12;;;;;;;14.30;6.60;;;12.10;1.00;;;;;;5387126;26;20468;-73
2024/04/26 09:20:42;;;;;;;10.57;5.77;;;12.10;1.00;;;;;;5398261;26;20464;-73
2024/04/26 09:23:13;;;;;;;12.70;5.70;;;12.10;1.00;;;;;;5367151;26;20515;-73
2024/04/26 09:25:42;;;;;;;11.53;5.60;;;12.00;1.00;;;;;;5367724;26;21482;-73
2024/04/26 09:28:11;;;;;;;13.60;6.00;;;12.10;1.00;;;;;;5365922;26;21071;-73
2024/04/26 09:30:47;;;;;;;14.87;6.77;;;12.20;1.00;;;;;;5378145;26;20462;-72
2024/04/26 09:33:18;;;;;;;13.53;6.67;;;12.30;1.00;;;;;;5372827;26;20513;-73
2024/04/26 09:35:51;;;;;;;16.30;6.67;;;12.30;1.00;;;;;;5366134;26;20523;-73
2024/04/26 09:38:22;;;;;;;13.43;7.13;;;12.40;1.00;;;;;;5389224;26;21026;-73
2024/04/26 09:40:52;;;;;;;17.07;6.03;;;12.20;1.00;;;;;;5368466;26;20465;-73
2024/04/26 09:43:21;;;;;;;12.70;6.83;;;12.00;1.00;;;;;;5365426;26;21012;-73
2024/04/26 09:45:51;;;;;;;18.63;7.47;;;12.00;1.00;;;;;;5375051;26;20928;-73
2024/04/26 09:48:21;;;;;;;13.03;5.80;;;12.10;1.00;;;;;;5389067;26;20523;-73
2024/04/26 09:50:51;;;;;;;13.50;6.57;;;12.20;1.00;;;;;;5385199;26;20564;-73
2024/04/26 09:53:25;;;;;;;10.03;5.50;;;12.30;1.00;;;;;;5380047;26;20458;-73
2024/04/26 09:55:55;;;;;;;11.40;5.20;;;12.30;1.00;;;;;;5376239;26;20591;-73
2024/04/26 09:58:24;;;;;;;10.67;5.63;;;12.40;1.00;;;;;;5388112;26;20876;-73
2024/04/26 10:00:53;;;;;;;14.33;6.30;;;12.30;1.00;;;;;;5387130;26;20474;-73
2024/04/26 10:03:23;;;;;;;16.77;7.50;;;12.10;1.00;;;;;;5380269;26;20450;-72
2024/04/26 10:06:01;;;;;;;12.10;6.80;;;11.90;1.00;;;;;;5374445;26;20489;-73
2024/04/26 10:08:36;;;;;;;14.03;7.43;;;11.90;1.00;;;;;;5396042;26;20466;-73
2024/04/26 10:11:09;;;;;;;20.80;7.00;;;11.90;1.00;;;;;;5380904;26;20968;-72
2024/04/26 10:13:46;;;;;;;14.67;6.83;;;12.00;1.00;;;;;;5378138;26;20598;-73
2024/04/26 10:16:15;;;;;;;13.47;6.13;;;12.00;1.00;;;;;;5378058;26;20513;-73
2024/04/26 10:18:44;;;;;;;12.70;7.03;;;12.00;1.00;;;;;;5394828;26;20476;-73
2024/04/26 10:21:24;;;;;;;19.13;6.70;;;12.00;1.00;;;;;;5409465;26;20577;-73
2024/04/26 10:24:01;;;;;;;18.47;6.80;;;12.10;1.00;;;;;;5406684;26;21022;-72
2024/04/26 10:26:29;;;;;;;14.00;7.17;;;12.10;1.00;;;;;;5383442;26;20482;-73
2024/04/26 10:28:58;;;;;;;12.73;7.63;;;12.10;1.00;;;;;;5395038;26;20474;-72
2024/04/26 10:31:29;;;;;;;12.20;7.13;;;12.10;1.00;;;;;;5395879;26;20558;-72
2024/04/26 10:33:57;;;;;;;22.83;9.17;;;12.10;1.00;;;;;;5394546;26;20804;-72
2024/04/26 10:36:26;;;;;;;10.83;6.37;;;12.00;1.00;;;;;;5373298;26;20460;-73
2024/04/26 10:38:54;;;;;;;17.00;6.17;;;12.20;1.00;;;;;;5401754;26;20460;-72
2024/04/26 10:41:26;;;;;;;13.70;8.07;;;12.40;1.00;;;;;;5381792;26;20462;-73
2024/04/26 10:43:55;;;;;;;14.37;7.60;;;12.70;1.00;;;;;;5380413;26;20514;-73
2024/04/26 10:46:21;;;;;;;16.70;7.73;;;13.00;1.00;;;;;;5388535;26;20813;-72
2024/04/26 10:48:50;;;;;;;19.47;7.80;;;13.30;1.00;;;;;;5363101;26;20559;-73
2024/04/26 10:51:21;;;;;;;14.10;7.70;;;13.50;1.00;;;;;;5349477;26;21069;-73
2024/04/26 10:53:52;;;;;;;10.50;6.43;;;13.20;1.00;;;;;;5377941;26;21089;-73
2024/04/26 10:56:22;;;;;;;13.33;7.90;;;13.10;1.00;;;;;;5352196;26;20460;-73
2024/04/26 10:58:53;;;;;;;15.90;7.13;;;13.10;1.00;;;;;;5372638;26;20462;-72
2024/04/26 11:01:23;;;;;;;13.47;6.63;;;13.00;1.00;;;;;;5354830;26;20801;-72
2024/04/26 11:03:55;;;;;;;11.63;7.83;;;13.30;1.00;;;;;;5373150;26;20575;-73
2024/04/26 11:06:31;;;;;;;14.47;7.80;;;13.30;1.00;;;;;;5388157;26;20905;-73
2024/04/26 11:09:08;;;;;;;17.43;9.07;;;13.10;1.00;;;;;;5390085;26;20519;-73
2024/04/26 11:11:37;;;;;;;13.93;8.13;;;12.90;1.00;;;;;;5360678;26;20469;-72
2024/04/26 11:14:08;;;;;;;13.07;7.53;;;12.80;1.00;;;;;;5393091;26;21071;-72
2024/04/26 11:16:36;;;;;;;14.50;8.37;;;13.00;1.00;;;;;;5397633;26;20464;-73
2024/04/26 11:19:05;;;;;;;16.65;8.45;;;13.00;1.00;;;;;;5359218;26;20895;-72
2024/04/26 11:21:34;;;;;;;14.00;8.93;;;12.90;1.00;;;;;;5380134;26;20228;-72
2024/04/26 11:24:03;;;;;;;15.10;7.60;;;12.80;1.00;;;;;;5375655;26;20519;-72
2024/04/26 11:26:32;;;;;;;17.17;8.43;;;12.80;1.00;;;;;;5385923;26;21006;-72
2024/04/26 11:29:00;;;;;;;17.50;7.13;;;12.90;1.00;;;;;;5377008;26;20523;-72
2024/04/26 11:31:31;;;;;;;13.83;8.47;;;12.90;1.00;;;;;;5378199;26;20469;-72
2024/04/26 11:34:00;;;;;;;12.00;7.50;;;13.00;1.00;;;;;;5380037;26;20519;-73
2024/04/26 11:36:28;;;;;;;15.00;8.47;;;13.10;1.00;;;;;;5394376;26;20473;-72
2024/04/26 11:38:57;;;;;;;21.47;9.60;;;13.30;1.00;;;;;;5395057;26;20961;-73
2024/04/26 11:41:25;;;;;;;13.03;6.93;;;13.90;1.00;;;;;;5392067;26;20466;-73
2024/04/26 11:43:55;;;;;;;17.13;8.30;;;14.70;1.00;;;;;;5380174;26;20527;-73
2024/04/26 11:46:23;;;;;;;16.40;8.20;;;14.60;1.00;;;;;;5380763;26;20573;-73
2024/04/26 11:48:55;;;;;;;12.20;8.17;;;15.00;1.00;;;;;;5381083;26;20502;-73
2024/04/26 11:51:24;;;;;;;14.67;7.80;;;15.40;1.00;;;;;;5374179;26;20507;-73
2024/04/26 11:53:56;;;;;;;19.30;9.00;;;16.10;1.00;;;;;;5386745;26;20583;-72
2024/04/26 11:56:24;;;;;;;19.47;8.50;;;15.80;1.00;;;;;;5373712;26;20909;-73
2024/04/26 11:58:55;;;;;;;11.87;8.10;;;16.00;1.00;;;;;;5387189;26;20579;-73
2024/04/26 12:01:23;;;;;;;15.40;7.57;;;16.40;1.00;;;;;;5380858;26;20540;-72
2024/04/26 12:03:54;;;;;;;20.67;9.43;;;16.70;1.00;;;;;;5393010;26;20531;-73
2024/04/26 12:06:24;;;;;;;14.23;7.83;;;16.50;1.00;;;;;;5372737;26;20517;-72
2024/04/26 12:08:52;;;;;;;16.00;9.03;;;16.20;1.00;;;;;;5400418;26;20888;-73
2024/04/26 12:11:21;;;;;;;18.48;9.48;;;16.20;1.00;;;;;;5375300;26;20731;-72
2024/04/26 12:13:52;;;;;;;14.90;7.93;;;16.10;1.00;;;;;;5342134;26;20589;-72
2024/04/26 12:16:20;;;;;;;13.93;8.93;;;16.10;1.00;;;;;;5337745;26;20510;-74
2024/04/26 12:18:49;;;;;;;15.10;8.07;;;16.30;1.00;;;;;;5372359;26;20464;-74
2024/04/26 12:21:23;;;;;;;19.47;8.77;;;16.20;1.00;;;;;;5359376;26;21020;-74
2024/04/26 12:23:52;;;;;;;12.90;7.70;;;16.30;1.00;;;;;;5376078;26;20457;-74
2024/04/26 12:26:22;;;;;;;15.30;9.17;;;16.70;1.00;;;;;;5352976;26;21813;-73
2024/04/26 12:28:51;;;;;;;12.60;7.70;;;16.40;1.00;;;;;;5356716;26;21013;-73
2024/04/26 12:31:20;;;;;;;17.63;8.63;;;15.80;1.00;;;;;;5388983;26;20581;-73
2024/04/26 12:33:48;;;;;;;20.17;7.80;;;15.40;1.00;;;;;;5389168;26;21036;-72
2024/04/26 12:36:20;;;;;;;14.53;9.00;;;15.10;1.00;;;;;;5355639;26;20470;-73
2024/04/26 12:38:48;;;;;;;16.17;9.70;;;15.30;1.00;;;;;;5383664;26;20516;-73
2024/04/26 12:41:17;;;;;;;15.47;9.70;;;15.20;1.00;;;;;;5363870;26;20910;-73
2024/04/26 12:43:45;;;;;;;15.77;8.80;;;15.50;1.00;;;;;;5367220;26;20560;-73
2024/04/26 12:46:15;;;;;;;12.93;7.50;;;15.50;1.00;;;;;;5402446;26;20469;-74
2024/04/26 12:48:44;;;;;;;13.40;8.60;;;15.90;1.00;;;;;;5390038;26;20461;-73
2024/04/26 12:51:12;;;;;;;11.93;7.83;;;16.70;1.00;;;;;;5380988;26;20513;-74
2024/04/26 12:53:43;;;;;;;12.87;8.20;;;16.70;1.00;;;;;;5367854;26;20478;-73
2024/04/26 12:56:14;;;;;;;15.70;8.90;;;16.50;1.00;;;;;;5363806;26;20877;-73
2024/04/26 12:58:43;;;;;;;18.70;9.67;;;16.30;1.00;;;;;;5379544;26;20861;-73
2024/04/26 13:01:16;;;;;;;14.77;8.63;;;16.10;1.00;;;;;;5379590;26;20727;-73
2024/04/26 13:03:45;;;;;;;18.37;11.53;;;16.00;1.00;;;;;;5410734;26;20591;-73
2024/04/26 13:06:17;;;;;;;15.43;10.30;;;16.20;1.00;;;;;;5375715;26;20567;-73